createdAt,value
2023-06-29T00:00:24.733Z,7.97
2023-06-29T00:02:51.578Z,8.00
2023-06-29T00:05:19.679Z,12.25
2023-06-29T00:07:46.338Z,9.15
2023-06-29T00:10:12.979Z,6.72
2023-06-29T00:12:40.086Z,6.88
2023-06-29T00:15:07.191Z,8.38
2023-06-29T00:17:35.850Z,7.80
2023-06-29T00:22:33.664Z,9.15
2023-06-29T00:25:00.718Z,8.80
2023-06-29T00:27:27.330Z,12.38
2023-06-29T00:29:53.950Z,6.15
2023-06-29T00:32:20.536Z,7.13
2023-06-29T00:34:47.797Z,13.52
2023-06-29T00:37:14.409Z,8.20
2023-06-29T00:39:40.949Z,9.88
2023-06-29T00:42:07.692Z,8.02
2023-06-29T00:44:34.396Z,8.27
2023-06-29T00:47:01.662Z,8.38
2023-06-29T00:49:29.016Z,8.95
2023-06-29T00:51:56.397Z,9.13
2023-06-29T00:54:23.721Z,8.55
2023-06-29T00:56:50.501Z,7.13
2023-06-29T00:59:17.433Z,8.75
2023-06-29T01:01:44.750Z,9.80
2023-06-29T01:04:18.618Z,8.07
2023-06-29T01:07:08.384Z,9.73
2023-06-29T01:09:38.528Z,6.63
2023-06-29T01:12:06.227Z,6.93
2023-06-29T01:14:34.522Z,8.10
2023-06-29T01:17:03.128Z,8.40
2023-06-29T01:22:03.264Z,7.75
2023-06-29T01:24:39.521Z,7.20
2023-06-29T01:27:08.727Z,8.68
2023-06-29T01:29:35.927Z,7.50
2023-06-29T01:32:04.393Z,8.80
2023-06-29T01:34:32.487Z,8.15
2023-06-29T01:37:06.100Z,8.82
2023-06-29T01:39:42.090Z,7.93
2023-06-29T01:42:10.187Z,10.45
2023-06-29T01:44:36.885Z,9.75
2023-06-29T01:47:05.263Z,6.60
2023-06-29T01:49:31.973Z,10.80
2023-06-29T01:51:58.671Z,7.28
2023-06-29T01:54:25.202Z,7.68
2023-06-29T01:56:51.950Z,10.38
2023-06-29T01:59:18.532Z,9.10
2023-06-29T02:01:45.229Z,7.63
2023-06-29T02:04:11.891Z,9.13
2023-06-29T02:06:38.526Z,8.77
2023-06-29T02:09:05.112Z,6.25
2023-06-29T02:11:31.775Z,7.65
2023-06-29T02:13:58.362Z,9.18
2023-06-29T02:16:24.884Z,9.73
2023-06-29T02:18:51.475Z,9.13
2023-06-29T02:21:18.154Z,8.23
2023-06-29T02:23:44.726Z,6.00
2023-06-29T02:26:11.336Z,9.35
2023-06-29T02:28:37.879Z,9.00
2023-06-29T02:31:04.490Z,8.43
2023-06-29T02:33:31.270Z,9.05
2023-06-29T02:35:57.857Z,9.80
2023-06-29T02:38:24.592Z,8.18
2023-06-29T02:40:51.539Z,7.25
2023-06-29T02:43:18.197Z,10.70
2023-06-29T02:45:45.741Z,7.57
2023-06-29T02:48:12.540Z,7.63
2023-06-29T02:50:39.055Z,10.90
2023-06-29T02:53:05.738Z,9.73
2023-06-29T02:55:32.941Z,7.18
2023-06-29T02:57:59.742Z,7.25
2023-06-29T03:00:26.564Z,7.28
2023-06-29T03:02:53.257Z,10.07
2023-06-29T03:05:19.967Z,8.10
2023-06-29T03:07:46.576Z,6.72
2023-06-29T03:10:13.202Z,10.50
2023-06-29T03:12:39.744Z,8.75
2023-06-29T03:15:06.685Z,9.82
2023-06-29T03:17:33.327Z,8.90
2023-06-29T03:20:00.057Z,9.63
2023-06-29T03:22:27.569Z,11.55
2023-06-29T03:24:54.386Z,15.32
2023-06-29T03:27:21.030Z,9.23
2023-06-29T03:29:53.022Z,9.55
2023-06-29T03:32:19.556Z,7.93
2023-06-29T03:34:46.090Z,9.73
2023-06-29T03:37:12.678Z,10.05
2023-06-29T03:39:39.191Z,9.65
2023-06-29T03:42:05.936Z,12.05
2023-06-29T03:44:32.558Z,10.75
2023-06-29T03:46:59.155Z,10.35
2023-06-29T03:49:26.063Z,9.95
2023-06-29T03:51:52.652Z,7.72
2023-06-29T03:54:19.232Z,8.85
2023-06-29T03:56:45.771Z,10.95
2023-06-29T03:59:12.360Z,8.40
2023-06-29T04:01:38.945Z,11.15
2023-06-29T04:04:05.634Z,9.15
2023-06-29T04:06:32.201Z,7.43
2023-06-29T04:08:58.776Z,9.38
2023-06-29T04:11:25.314Z,7.63
2023-06-29T04:13:51.852Z,10.02
2023-06-29T04:16:18.445Z,7.90
2023-06-29T04:18:45.064Z,9.55
2023-06-29T04:21:11.697Z,8.77
2023-06-29T04:23:38.217Z,7.07
2023-06-29T04:26:04.778Z,9.45
2023-06-29T04:28:34.958Z,11.18
2023-06-29T04:31:01.587Z,8.35
2023-06-29T04:33:28.204Z,7.35
2023-06-29T04:35:54.793Z,6.47
2023-06-29T04:38:27.018Z,10.57
2023-06-29T04:41:04.436Z,8.88
2023-06-29T04:43:32.157Z,8.88
2023-06-29T04:46:01.806Z,9.55
2023-06-29T04:48:34.250Z,11.43
2023-06-29T04:51:06.146Z,6.93
2023-06-29T04:53:34.144Z,8.52
2023-06-29T04:56:02.291Z,7.22
2023-06-29T04:58:29.187Z,8.18
2023-06-29T05:00:55.986Z,7.35
2023-06-29T05:03:22.622Z,10.48
2023-06-29T05:05:49.339Z,8.27
2023-06-29T05:08:15.972Z,6.53
2023-06-29T05:10:42.592Z,10.60
2023-06-29T05:13:09.145Z,12.15
2023-06-29T05:15:35.668Z,9.38
2023-06-29T05:18:02.232Z,10.23
2023-06-29T05:20:28.858Z,10.48
2023-06-29T05:22:55.374Z,9.73
2023-06-29T05:25:22.099Z,10.63
2023-06-29T05:27:48.676Z,8.50
2023-06-29T05:30:15.468Z,9.50
2023-06-29T05:32:42.064Z,7.78
2023-06-29T05:35:08.768Z,10.35
2023-06-29T05:37:35.289Z,10.27
2023-06-29T05:40:02.317Z,9.05
2023-06-29T05:42:28.859Z,8.68
2023-06-29T05:44:56.614Z,9.30
2023-06-29T05:47:23.237Z,9.40
2023-06-29T05:49:51.788Z,8.88
2023-06-29T05:52:18.409Z,9.63
2023-06-29T05:54:45.551Z,13.18
2023-06-29T05:57:12.146Z,7.90
2023-06-29T05:59:38.650Z,8.60
2023-06-29T06:02:05.529Z,12.10
2023-06-29T06:04:32.095Z,10.93
2023-06-29T06:06:59.708Z,12.18
2023-06-29T06:09:26.239Z,10.52
2023-06-29T06:11:52.780Z,10.05
2023-06-29T06:14:19.330Z,11.32
2023-06-29T06:16:45.876Z,9.25
2023-06-29T06:19:12.490Z,12.30
2023-06-29T06:21:39.158Z,11.20
2023-06-29T06:24:05.868Z,8.43
2023-06-29T06:26:32.445Z,11.32
2023-06-29T06:28:58.988Z,10.18
2023-06-29T06:31:34.089Z,13.00
2023-06-29T06:34:01.852Z,9.60
2023-06-29T06:36:31.376Z,11.07
2023-06-29T06:38:58.204Z,10.73
2023-06-29T06:41:24.803Z,9.13
2023-06-29T06:43:51.358Z,9.70
2023-06-29T06:46:18.239Z,11.10
2023-06-29T06:48:44.870Z,8.65
2023-06-29T06:51:11.467Z,9.05
2023-06-29T06:53:38.064Z,9.93
2023-06-29T06:56:04.979Z,8.18
2023-06-29T06:58:31.630Z,10.50
2023-06-29T07:00:58.257Z,10.60
2023-06-29T07:03:27.038Z,10.27
2023-06-29T07:05:57.020Z,12.82
2023-06-29T07:08:23.647Z,9.82
2023-06-29T07:10:52.623Z,11.43
2023-06-29T07:13:19.539Z,10.70
2023-06-29T07:15:49.659Z,9.77
2023-06-29T07:18:16.284Z,8.55
2023-06-29T07:25:52.913Z,9.63
2023-06-29T07:28:19.591Z,10.07
2023-06-29T07:30:46.250Z,11.90
2023-06-29T07:33:12.982Z,11.75
2023-06-29T07:35:39.557Z,10.00
2023-06-29T07:38:06.897Z,12.10
2023-06-29T07:40:33.519Z,11.38
2023-06-29T07:43:00.098Z,10.07
2023-06-29T07:45:26.634Z,9.88
2023-06-29T07:47:53.484Z,12.00
2023-06-29T07:50:21.011Z,9.60
2023-06-29T07:52:47.872Z,11.73
2023-06-29T07:55:14.592Z,11.50
2023-06-29T08:00:11.200Z,12.38
2023-06-29T08:02:37.802Z,13.85
2023-06-29T08:07:35.013Z,15.73
2023-06-29T08:10:01.871Z,13.98
2023-06-29T08:12:28.419Z,10.25
2023-06-29T08:14:54.946Z,10.00
2023-06-29T08:17:21.467Z,12.13
2023-06-29T08:19:48.027Z,11.68
2023-06-29T08:22:14.602Z,11.27
2023-06-29T08:24:41.138Z,13.88
2023-06-29T08:27:07.669Z,11.43
2023-06-29T08:29:34.214Z,12.95
2023-06-29T08:32:00.835Z,12.73
2023-06-29T08:34:27.426Z,13.00
2023-06-29T08:36:53.980Z,10.35
2023-06-29T08:39:20.574Z,12.05
2023-06-29T08:41:47.656Z,14.55
2023-06-29T08:44:14.738Z,9.30
2023-06-29T08:46:43.254Z,13.25
2023-06-29T08:49:10.272Z,12.05
2023-06-29T08:51:43.532Z,14.40
2023-06-29T08:54:12.584Z,17.17
2023-06-29T08:56:40.081Z,12.27
2023-06-29T08:59:06.941Z,12.40
2023-06-29T09:01:34.737Z,14.40
2023-06-29T09:04:01.887Z,13.15
2023-06-29T09:06:30.094Z,14.70
2023-06-29T09:08:56.946Z,13.85
2023-06-29T09:11:24.013Z,12.68
2023-06-29T09:13:51.063Z,18.50
2023-06-29T09:16:19.380Z,13.55
2023-06-29T09:18:55.390Z,13.27
2023-06-29T09:21:24.523Z,11.90
2023-06-29T09:23:52.153Z,11.35
2023-06-29T09:26:19.022Z,16.50
2023-06-29T09:28:48.711Z,12.98
2023-06-29T09:31:15.383Z,14.57
2023-06-29T09:33:42.023Z,13.60
2023-06-29T09:36:09.656Z,13.80
2023-06-29T09:38:36.566Z,14.68
2023-06-29T09:41:07.847Z,15.23
2023-06-29T09:43:34.504Z,13.02
2023-06-29T09:46:07.260Z,16.63
2023-06-29T09:51:06.088Z,13.55
2023-06-29T09:53:34.101Z,15.80
2023-06-29T09:56:04.005Z,14.35
2023-06-29T09:58:31.735Z,14.85
2023-06-29T10:01:00.226Z,15.00
2023-06-29T10:03:28.618Z,14.55
2023-06-29T10:06:00.376Z,15.02
2023-06-29T10:08:29.918Z,15.40
2023-06-29T10:11:03.419Z,15.73
2023-06-29T10:13:34.267Z,17.60
2023-06-29T10:16:04.053Z,14.23
2023-06-29T10:18:38.097Z,15.68
2023-06-29T10:21:04.717Z,15.55
2023-06-29T10:23:32.811Z,14.70
2023-06-29T10:26:01.965Z,14.13
2023-06-29T10:28:28.744Z,18.00
2023-06-29T10:30:59.439Z,14.10
2023-06-29T10:33:27.114Z,15.35
2023-06-29T10:36:04.104Z,15.68
2023-06-29T10:38:35.714Z,18.48
2023-06-29T10:41:05.860Z,15.88
2023-06-29T10:44:01.578Z,15.48
2023-06-29T10:46:48.512Z,16.15
2023-06-29T10:49:26.894Z,15.35
2023-06-29T10:52:04.678Z,14.88
2023-06-29T10:55:24.846Z,16.60
2023-06-29T10:58:07.251Z,14.60
2023-06-29T11:00:33.803Z,16.67
2023-06-29T11:03:00.764Z,14.27
2023-06-29T11:05:27.339Z,19.75
2023-06-29T11:07:54.334Z,14.05
2023-06-29T11:10:22.312Z,12.07
2023-06-29T11:12:51.292Z,17.45
2023-06-29T11:15:21.168Z,17.65
2023-06-29T11:17:51.085Z,19.17
2023-06-29T11:20:19.787Z,17.00
2023-06-29T11:22:46.984Z,14.98
2023-06-29T11:25:16.329Z,14.95
2023-06-29T11:27:44.018Z,19.13
2023-06-29T11:30:12.429Z,20.10
2023-06-29T11:35:08.420Z,20.10
2023-06-29T11:37:38.254Z,21.92
2023-06-29T11:40:08.816Z,19.73
2023-06-29T11:42:37.264Z,19.77
2023-06-29T11:47:33.890Z,18.40
2023-06-29T11:50:02.216Z,18.10
2023-06-29T11:52:31.796Z,21.20
2023-06-29T11:55:07.368Z,18.80
2023-06-29T11:57:48.928Z,20.50
2023-06-29T12:00:15.417Z,21.33
2023-06-29T12:02:42.459Z,19.65
2023-06-29T12:05:10.050Z,21.38
2023-06-29T12:07:37.670Z,19.83
2023-06-29T12:10:12.771Z,23.63
2023-06-29T12:12:42.945Z,19.27
2023-06-29T12:15:16.835Z,20.95
2023-06-29T12:20:17.847Z,18.23
2023-06-29T12:22:45.421Z,18.98
2023-06-29T12:25:16.369Z,16.02
2023-06-29T12:27:45.791Z,17.55
2023-06-29T12:30:16.057Z,17.27
2023-06-29T12:32:46.213Z,19.90
2023-06-29T12:35:17.314Z,19.08
2023-06-29T12:37:46.036Z,21.02
2023-06-29T12:40:12.936Z,17.20
2023-06-29T12:42:39.432Z,16.63
2023-06-29T12:45:06.793Z,18.23
2023-06-29T12:47:37.189Z,17.88
2023-06-29T12:50:04.659Z,19.05
2023-06-29T12:52:31.554Z,19.33
2023-06-29T12:55:04.885Z,17.95
2023-06-29T12:57:33.702Z,16.73
2023-06-29T13:00:01.671Z,17.27
2023-06-29T13:02:28.681Z,16.42
2023-06-29T13:04:55.390Z,16.92
2023-06-29T13:07:25.469Z,18.95
2023-06-29T13:09:55.216Z,17.30
2023-06-29T13:12:21.836Z,17.80
2023-06-29T13:14:50.130Z,19.77
2023-06-29T13:17:17.173Z,16.05
2023-06-29T13:19:47.462Z,19.88
2023-06-29T13:22:14.208Z,16.08
2023-06-29T13:24:40.958Z,19.65
2023-06-29T13:27:07.831Z,17.60
2023-06-29T13:29:36.402Z,15.15
2023-06-29T13:32:03.325Z,16.00
2023-06-29T13:34:31.466Z,15.95
2023-06-29T13:36:59.264Z,15.60
2023-06-29T13:39:25.911Z,16.65
2023-06-29T13:41:52.605Z,13.50
2023-06-29T13:44:19.326Z,13.98
2023-06-29T13:46:47.458Z,13.32
2023-06-29T13:49:15.288Z,14.05
2023-06-29T13:51:42.124Z,14.30
2023-06-29T13:54:09.021Z,12.38
2023-06-29T13:56:38.601Z,13.70
2023-06-29T13:59:08.036Z,13.95
2023-06-29T14:01:39.874Z,13.05
2023-06-29T14:04:08.875Z,13.32
2023-06-29T14:06:37.706Z,15.02
2023-06-29T14:09:06.461Z,13.02
2023-06-29T14:11:33.451Z,13.90
2023-06-29T14:14:00.038Z,11.95
2023-06-29T14:16:27.457Z,11.63
2023-06-29T14:18:54.900Z,11.95
2023-06-29T14:21:22.262Z,11.13
2023-06-29T14:23:49.371Z,12.50
2023-06-29T14:26:16.299Z,12.10
2023-06-29T14:28:43.731Z,12.13
2023-06-29T14:31:10.622Z,10.45
2023-06-29T14:33:37.307Z,12.55
2023-06-29T14:36:06.235Z,13.27
2023-06-29T14:38:33.652Z,12.70
2023-06-29T14:41:00.393Z,12.93
2023-06-29T14:43:27.399Z,14.20
2023-06-29T14:45:55.634Z,14.45
2023-06-29T14:48:23.558Z,15.88
2023-06-29T14:50:53.943Z,15.10
2023-06-29T14:53:21.487Z,12.30
2023-06-29T14:55:49.712Z,14.43
2023-06-29T15:00:43.411Z,15.15
2023-06-29T15:03:10.231Z,20.17
2023-06-29T15:05:36.911Z,15.93
2023-06-29T15:08:03.615Z,16.35
2023-06-29T15:10:30.190Z,15.48
2023-06-29T15:12:56.723Z,16.50
2023-06-29T15:15:23.611Z,17.38
2023-06-29T15:17:51.462Z,16.48
2023-06-29T15:20:19.118Z,17.30
2023-06-29T15:22:46.054Z,18.20
2023-06-29T15:25:12.709Z,16.33
2023-06-29T15:27:39.608Z,15.07
2023-06-29T15:30:06.862Z,19.48
2023-06-29T15:32:33.717Z,18.50
2023-06-29T15:35:02.069Z,18.10
2023-06-29T15:39:55.040Z,16.02
2023-06-29T15:42:21.627Z,20.92
2023-06-29T15:44:48.182Z,19.65
2023-06-29T15:47:14.745Z,18.65
2023-06-29T15:49:41.330Z,18.83
2023-06-29T15:52:08.089Z,18.77
2023-06-29T15:54:34.684Z,17.63
2023-06-29T15:57:01.622Z,18.15
2023-06-29T15:59:28.134Z,16.73
2023-06-29T16:01:54.772Z,21.17
2023-06-29T16:04:21.855Z,20.30
2023-06-29T16:06:48.551Z,17.02
2023-06-29T16:09:15.268Z,19.02
2023-06-29T16:11:41.938Z,20.65
2023-06-29T16:14:09.705Z,18.90
2023-06-29T16:16:36.438Z,21.38
2023-06-29T16:19:03.104Z,15.63
2023-06-29T16:21:29.652Z,17.48
2023-06-29T16:23:56.253Z,19.58
2023-06-29T16:26:23.068Z,19.30
2023-06-29T16:28:49.653Z,17.52
2023-06-29T16:31:19.144Z,18.20
2023-06-29T16:33:45.893Z,20.73
2023-06-29T16:36:12.508Z,16.40
2023-06-29T16:38:39.133Z,16.73
2023-06-29T16:41:05.690Z,15.95
2023-06-29T16:43:32.298Z,16.48
2023-06-29T16:45:59.217Z,16.75
2023-06-29T16:48:26.834Z,15.00
2023-06-29T16:50:53.390Z,17.35
2023-06-29T16:53:19.986Z,17.08
2023-06-29T16:55:47.460Z,17.60
2023-06-29T16:58:14.574Z,19.60
2023-06-29T17:00:42.599Z,17.77
2023-06-29T17:03:09.387Z,16.48
2023-06-29T17:05:35.996Z,17.73
2023-06-29T17:08:02.940Z,14.45
2023-06-29T17:10:29.671Z,18.85
2023-06-29T17:12:56.357Z,16.52
2023-06-29T17:15:25.161Z,15.93
2023-06-29T17:17:52.541Z,16.42
2023-06-29T17:20:20.361Z,18.73
2023-06-29T17:22:47.001Z,17.50
2023-06-29T17:25:13.587Z,20.63
2023-06-29T17:27:40.157Z,18.52
2023-06-29T17:30:07.315Z,24.83
2023-06-29T17:32:33.972Z,25.08
2023-06-29T17:35:00.598Z,20.23
2023-06-29T17:37:27.181Z,21.27
2023-06-29T17:39:53.908Z,22.83
2023-06-29T17:42:22.220Z,22.40
2023-06-29T17:44:49.357Z,26.25
2023-06-29T17:47:16.241Z,24.10
2023-06-29T17:49:43.526Z,25.02
2023-06-29T17:52:10.338Z,22.25
2023-06-29T17:54:37.198Z,23.27
2023-06-29T17:57:04.920Z,26.00
2023-06-29T17:59:31.552Z,24.70
2023-06-29T18:01:58.164Z,21.80
2023-06-29T18:04:25.072Z,24.85
2023-06-29T18:06:51.968Z,26.65
2023-06-29T18:09:18.550Z,23.67
2023-06-29T18:11:45.132Z,23.23
2023-06-29T18:14:11.658Z,23.63
2023-06-29T18:16:40.174Z,25.05
2023-06-29T18:19:06.948Z,25.40
2023-06-29T18:21:33.565Z,30.20
2023-06-29T18:24:00.124Z,24.15
2023-06-29T18:26:26.705Z,25.70
2023-06-29T18:28:53.237Z,27.13
2023-06-29T18:31:20.025Z,24.95
2023-06-29T18:33:46.615Z,28.83
2023-06-29T18:36:13.396Z,24.23
2023-06-29T18:38:40.033Z,28.13
2023-06-29T18:41:06.787Z,28.75
2023-06-29T18:43:33.435Z,28.00
2023-06-29T18:46:00.059Z,23.88
2023-06-29T18:48:26.630Z,24.65
2023-06-29T18:50:53.220Z,26.42
2023-06-29T18:53:19.758Z,28.90
2023-06-29T18:55:46.715Z,27.80
2023-06-29T18:58:13.399Z,30.27
2023-06-29T19:00:39.933Z,30.40
2023-06-29T19:03:06.567Z,24.45
2023-06-29T19:05:33.197Z,25.33
2023-06-29T19:08:02.458Z,29.08
2023-06-29T19:10:30.188Z,26.83
2023-06-29T19:12:56.896Z,25.65
2023-06-29T19:15:23.472Z,26.27
2023-06-29T19:17:50.013Z,25.73
2023-06-29T19:20:16.627Z,26.48
2023-06-29T19:22:43.136Z,26.55
2023-06-29T19:25:09.946Z,27.35
2023-06-29T19:27:36.573Z,24.35
2023-06-29T19:30:03.273Z,26.05
2023-06-29T19:32:29.903Z,26.67
2023-06-29T19:34:56.464Z,24.92
2023-06-29T19:37:26.196Z,29.08
2023-06-29T19:39:52.812Z,24.67
2023-06-29T19:42:19.356Z,30.70
2023-06-29T19:44:45.894Z,26.00
2023-06-29T19:47:12.504Z,23.40
2023-06-29T19:49:39.156Z,26.73
2023-06-29T19:52:06.827Z,28.08
2023-06-29T19:54:33.412Z,25.85
2023-06-29T19:57:00.129Z,26.30
2023-06-29T19:59:26.764Z,24.20
2023-06-29T20:01:53.429Z,22.00
2023-06-29T20:04:20.270Z,23.35
2023-06-29T20:06:48.432Z,23.17
2023-06-29T20:09:14.978Z,21.73
2023-06-29T20:11:41.645Z,20.95
2023-06-29T20:14:08.294Z,20.38
2023-06-29T20:16:34.946Z,22.83
2023-06-29T20:19:01.766Z,18.75
2023-06-29T20:21:28.376Z,23.23
2023-06-29T20:23:55.088Z,18.90
2023-06-29T20:26:21.924Z,20.45
2023-06-29T20:28:48.471Z,20.05
2023-06-29T20:31:15.280Z,24.52
2023-06-29T20:33:41.940Z,19.98
2023-06-29T20:36:08.522Z,24.77
2023-06-29T20:38:35.115Z,19.52
2023-06-29T20:41:01.897Z,23.83
2023-06-29T20:43:28.507Z,23.30
2023-06-29T20:45:55.869Z,21.30
2023-06-29T20:48:22.560Z,20.88
2023-06-29T20:50:50.482Z,20.15
2023-06-29T20:53:18.680Z,21.02
2023-06-29T20:55:45.440Z,22.05
2023-06-29T20:58:12.382Z,18.55
2023-06-29T21:00:39.009Z,21.33
2023-06-29T21:03:07.135Z,19.50
2023-06-29T21:05:34.576Z,16.85
2023-06-29T21:08:01.272Z,18.20
2023-06-29T21:10:27.889Z,19.77
2023-06-29T21:12:54.819Z,18.02
2023-06-29T21:15:21.548Z,19.48
2023-06-29T21:17:48.506Z,19.23
2023-06-29T21:20:15.301Z,18.38
2023-06-29T21:22:42.070Z,18.55
2023-06-29T21:25:09.501Z,17.85
2023-06-29T21:27:36.612Z,15.35
2023-06-29T21:30:03.997Z,19.10
2023-06-29T21:32:30.733Z,15.25
2023-06-29T21:34:57.571Z,15.18
2023-06-29T21:37:24.410Z,16.60
2023-06-29T21:39:51.226Z,14.20
2023-06-29T21:42:17.852Z,14.60
2023-06-29T21:44:44.439Z,14.77
2023-06-29T21:47:11.125Z,13.95
2023-06-29T21:49:39.113Z,15.18
2023-06-29T21:52:06.765Z,14.45
2023-06-29T21:54:33.276Z,14.80
2023-06-29T21:56:59.876Z,13.55
2023-06-29T21:59:26.571Z,12.30
2023-06-29T22:01:53.215Z,12.20
2023-06-29T22:04:19.832Z,9.82
2023-06-29T22:06:46.324Z,7.43
2023-06-29T22:09:12.906Z,6.53
2023-06-29T22:11:39.805Z,6.97
2023-06-29T22:14:09.740Z,6.05
2023-06-29T22:16:37.291Z,5.35
2023-06-29T22:19:04.449Z,8.15
2023-06-29T22:21:31.483Z,5.90
2023-06-29T22:23:58.070Z,7.45
2023-06-29T22:26:25.771Z,5.65
2023-06-29T22:28:52.655Z,5.18
2023-06-29T22:31:19.583Z,3.58
2023-06-29T22:33:46.987Z,5.03
2023-06-29T22:36:17.203Z,2.72
2023-06-29T22:38:44.102Z,4.65
2023-06-29T22:41:11.308Z,2.72
2023-06-29T22:43:38.697Z,2.35
2023-06-29T22:46:05.645Z,2.83
2023-06-29T22:48:32.296Z,2.20
2023-06-29T22:51:00.171Z,5.15
2023-06-29T22:53:27.308Z,5.55
2023-06-29T22:55:54.002Z,3.53
2023-06-29T22:58:25.292Z,3.88
2023-06-29T23:00:53.305Z,3.28
2023-06-29T23:03:20.290Z,2.58
2023-06-29T23:05:47.698Z,3.25
2023-06-29T23:08:14.819Z,1.70
2023-06-29T23:10:41.688Z,0.77
2023-06-29T23:13:14.986Z,3.15
2023-06-29T23:15:43.615Z,2.05
2023-06-29T23:18:11.894Z,1.73
2023-06-29T23:20:39.475Z,2.58
2023-06-29T23:23:06.133Z,2.17
2023-06-29T23:25:33.596Z,3.50
2023-06-29T23:28:02.007Z,3.80
2023-06-29T23:30:28.785Z,4.95
2023-06-29T23:32:55.398Z,4.13
2023-06-29T23:35:22.084Z,2.85
2023-06-29T23:37:48.747Z,4.00
2023-06-29T23:40:16.247Z,3.30
2023-06-29T23:42:45.858Z,2.45
2023-06-29T23:45:12.691Z,4.70
2023-06-29T23:47:39.988Z,5.78
2023-06-29T23:50:12.267Z,4.43
2023-06-29T23:52:39.636Z,5.53
2023-06-29T23:55:08.072Z,4.68
2023-06-29T23:57:35.024Z,4.15
